Time;durP1;ratioP1;P1;durP2;ratioP2;P2;SDS_P1;SDS_P2;PMS_P1;PMS_P2;Temp;Humidity;BMP_temperature;BMP_pressure;BME280_temperature;BME280_humidity;BME280_pressure;Samples;Min_cycle;Max_cycle;Signal;HPM_P1;HPM_P2
2022/03/11 00:00:22;;;;;;;;;;;13.90;54.80;;;;;;5252327;28;19921;-27
2022/03/11 00:03:13;;;;;;;;;;;13.90;54.70;;;;;;5252792;28;19959;-31
2022/03/11 00:05:44;;;;;;;;;;;14.00;54.80;;;;;;5234709;28;19921;-28
2022/03/11 00:08:15;;;;;;;;;;;14.00;54.70;;;;;;5252407;28;19920;-30
2022/03/11 00:10:46;;;;;;;;;;;14.00;54.60;;;;;;5252262;28;19927;-32
2022/03/11 00:13:17;;;;;;;;;;;13.90;55.10;;;;;;5252312;28;19920;-28
2022/03/11 00:15:48;;;;;;;;;;;13.90;54.50;;;;;;5234193;28;19920;-28
2022/03/11 00:18:20;;;;;;;;;;;13.90;54.50;;;;;;5234619;28;19927;-31
2022/03/11 00:20:51;;;;;;;;;;;14.00;54.60;;;;;;5234793;28;20269;-28
2022/03/11 00:23:22;;;;;;;;;;;13.90;54.50;;;;;;5252243;28;19927;-28
2022/03/11 00:25:53;;;;;;;;;;;13.90;54.60;;;;;;5252225;28;19921;-27
2022/03/11 00:28:23;;;;;;;;;;;13.90;54.50;;;;;;5252158;28;19924;-28
2022/03/11 00:30:55;;;;;;;;;;;13.90;54.60;;;;;;5234667;28;19959;-31
2022/03/11 00:33:25;;;;;;;;;;;14.00;54.80;;;;;;5251805;28;20334;-28
2022/03/11 00:35:56;;;;;;;;;;;13.90;54.60;;;;;;5252014;28;19927;-28
2022/03/11 00:38:27;;;;;;;;;;;13.90;54.70;;;;;;5251767;28;20388;-28
2022/03/11 00:40:58;;;;;;;;;;;13.90;54.70;;;;;;5251963;28;20281;-28
2022/03/11 00:43:29;;;;;;;;;;;13.90;54.50;;;;;;5234111;28;19920;-32
2022/03/11 00:46:00;;;;;;;;;;;13.90;54.50;;;;;;5251638;28;19920;-30
2022/03/11 00:48:31;;;;;;;;;;;13.90;54.60;;;;;;5232828;28;19924;-29
2022/03/11 00:51:02;;;;;;;;;;;13.90;54.50;;;;;;5251508;28;19920;-29
2022/03/11 00:53:35;;;;;;;;;;;13.90;54.60;;;;;;5251363;28;19924;-28
2022/03/11 00:56:06;;;;;;;;;;;13.90;54.50;;;;;;5233769;28;19920;-27
2022/03/11 00:58:37;;;;;;;;;;;13.90;54.30;;;;;;5233306;28;20419;-29
2022/03/11 01:01:08;;;;;;;;;;;13.90;54.50;;;;;;5250134;28;20270;-28
2022/03/11 01:03:39;;;;;;;;;;;13.90;54.40;;;;;;5251635;28;19921;-30
2022/03/11 01:06:10;;;;;;;;;;;13.90;54.30;;;;;;5251430;28;19920;-30
2022/03/11 01:08:41;;;;;;;;;;;13.90;54.50;;;;;;5251414;28;20265;-31
2022/03/11 01:11:12;;;;;;;;;;;13.90;54.40;;;;;;5251414;28;19924;-31
2022/03/11 01:13:43;;;;;;;;;;;13.90;54.30;;;;;;5251247;28;19924;-30
2022/03/11 01:16:14;;;;;;;;;;;13.90;54.40;;;;;;5250294;28;20293;-28
2022/03/11 01:18:45;;;;;;;;;;;13.90;54.40;;;;;;5250885;28;19920;-30
2022/03/11 01:21:16;;;;;;;;;;;13.90;54.50;;;;;;5251490;28;20246;-31
2022/03/11 01:23:47;;;;;;;;;;;13.90;54.30;;;;;;5251110;28;19927;-27
2022/03/11 01:26:18;;;;;;;;;;;13.90;54.40;;;;;;5233434;28;19924;-27
2022/03/11 01:28:50;;;;;;;;;;;13.90;54.30;;;;;;5250689;28;19973;-27
2022/03/11 01:31:22;;;;;;;;;;;13.90;54.30;;;;;;5233317;28;20320;-29
2022/03/11 01:33:53;;;;;;;;;;;13.90;54.40;;;;;;5251004;28;19932;-29
2022/03/11 01:36:24;;;;;;;;;;;13.90;54.80;;;;;;5250755;28;20277;-28
2022/03/11 01:38:56;;;;;;;;;;;13.90;54.30;;;;;;5233285;28;19927;-30
2022/03/11 01:41:28;;;;;;;;;;;13.90;54.30;;;;;;5250838;28;19962;-29
2022/03/11 01:43:59;;;;;;;;;;;13.90;54.20;;;;;;5232682;28;20442;-30
2022/03/11 01:46:30;;;;;;;;;;;13.90;54.10;;;;;;5251155;28;19959;-30
2022/03/11 01:49:02;;;;;;;;;;;13.90;54.10;;;;;;5232982;28;19966;-28
2022/03/11 01:51:34;;;;;;;;;;;13.90;54.30;;;;;;5232614;28;19920;-30
2022/03/11 01:54:05;;;;;;;;;;;13.90;54.30;;;;;;5250436;28;19971;-32
2022/03/11 01:56:36;;;;;;;;;;;13.90;54.30;;;;;;5250423;28;19931;-29
2022/03/11 01:59:07;;;;;;;;;;;13.90;54.40;;;;;;5233091;28;19920;-28
2022/03/11 02:01:38;;;;;;;;;;;13.90;54.90;;;;;;5232937;28;19920;-29
2022/03/11 02:04:09;;;;;;;;;;;13.90;54.40;;;;;;5232854;28;19920;-28
2022/03/11 02:06:40;;;;;;;;;;;14.00;54.60;;;;;;5250280;28;20273;-27
2022/03/11 02:09:11;;;;;;;;;;;13.90;54.50;;;;;;5250284;28;19920;-28
2022/03/11 02:11:42;;;;;;;;;;;13.90;54.40;;;;;;5249904;28;19955;-31
2022/03/11 02:14:13;;;;;;;;;;;13.90;54.60;;;;;;5250129;28;19967;-28
2022/03/11 02:16:44;;;;;;;;;;;14.00;54.60;;;;;;5249904;28;19924;-28
2022/03/11 02:19:15;;;;;;;;;;;14.00;54.60;;;;;;5231833;28;19921;-27
2022/03/11 02:21:47;;;;;;;;;;;13.90;54.70;;;;;;5232236;28;19921;-28
2022/03/11 02:24:22;;;;;;;;;;;14.00;55.00;;;;;;5232067;28;19920;-30
2022/03/11 02:26:53;;;;;;;;;;;13.90;54.80;;;;;;5249699;28;19928;-26
2022/03/11 02:29:24;;;;;;;;;;;13.90;54.90;;;;;;5250030;28;20328;-28
2022/03/11 02:31:55;;;;;;;;;;;13.90;54.90;;;;;;5249383;28;19920;-27
2022/03/11 02:34:25;;;;;;;;;;;13.90;54.70;;;;;;5250134;28;19981;-31
2022/03/11 02:36:56;;;;;;;;;;;13.90;54.80;;;;;;5249781;28;19921;-28
2022/03/11 02:39:27;;;;;;;;;;;13.90;54.70;;;;;;5249637;28;19920;-28
2022/03/11 02:42:00;;;;;;;;;;;13.90;54.80;;;;;;5249564;28;19920;-29
2022/03/11 02:44:31;;;;;;;;;;;13.90;54.80;;;;;;5249399;28;20369;-28
2022/03/11 02:47:02;;;;;;;;;;;14.00;54.80;;;;;;5249522;28;19920;-31
2022/03/11 02:49:33;;;;;;;;;;;14.00;54.60;;;;;;5249544;28;19930;-32
2022/03/11 02:52:04;;;;;;;;;;;13.90;54.70;;;;;;5248900;28;19920;-28
2022/03/11 02:54:35;;;;;;;;;;;13.90;54.70;;;;;;5198413;28;20342;-29
2022/03/11 02:57:06;;;;;;;;;;;14.00;54.70;;;;;;5249371;28;19920;-28
2022/03/11 02:59:37;;;;;;;;;;;14.00;54.40;;;;;;5249381;28;20381;-28
2022/03/11 03:02:08;;;;;;;;;;;13.90;54.40;;;;;;5249362;28;19920;-27
2022/03/11 03:04:39;;;;;;;;;;;14.00;54.60;;;;;;5249260;28;19921;-31
2022/03/11 03:07:11;;;;;;;;;;;14.00;54.60;;;;;;5249535;28;20360;-28
2022/03/11 03:09:43;;;;;;;;;;;14.00;54.40;;;;;;5249076;28;20435;-28
2022/03/11 03:12:14;;;;;;;;;;;14.00;54.20;;;;;;5248840;28;20255;-29
2022/03/11 03:14:45;;;;;;;;;;;13.90;54.20;;;;;;5231299;28;20045;-28
2022/03/11 03:17:18;;;;;;;;;;;14.00;54.30;;;;;;5249289;28;19921;-28
2022/03/11 03:19:49;;;;;;;;;;;14.00;54.30;;;;;;5248832;28;19947;-28
2022/03/11 03:22:20;;;;;;;;;;;14.00;54.70;;;;;;5249188;28;19920;-32
2022/03/11 03:24:51;;;;;;;;;;;14.00;54.30;;;;;;5249160;28;20369;-28
2022/03/11 03:27:23;;;;;;;;;;;14.00;54.00;;;;;;5249092;28;19920;-30
2022/03/11 03:29:53;;;;;;;;;;;14.00;54.00;;;;;;5231336;28;19924;-29
2022/03/11 03:32:25;;;;;;;;;;;13.90;54.20;;;;;;5248944;28;20002;-29
2022/03/11 03:34:56;;;;;;;;;;;14.00;54.20;;;;;;5249060;28;19920;-28
2022/03/11 03:37:27;;;;;;;;;;;14.00;54.90;;;;;;5249020;28;20273;-32
2022/03/11 03:39:58;;;;;;;;;;;14.00;54.30;;;;;;5248266;28;19927;-28
2022/03/11 03:42:29;;;;;;;;;;;14.00;54.20;;;;;;5249032;28;19943;-28
2022/03/11 03:45:00;;;;;;;;;;;14.00;54.30;;;;;;5248594;28;19920;-28
2022/03/11 03:47:31;;;;;;;;;;;14.00;54.30;;;;;;5248726;28;19959;-28
2022/03/11 03:50:02;;;;;;;;;;;14.00;54.50;;;;;;5248766;28;19959;-28
2022/03/11 03:52:33;;;;;;;;;;;14.00;54.30;;;;;;5230722;28;19920;-28
2022/03/11 03:55:04;;;;;;;;;;;14.00;54.20;;;;;;5230937;28;20369;-29
2022/03/11 03:57:35;;;;;;;;;;;14.00;54.40;;;;;;5248491;28;19927;-28
2022/03/11 04:00:07;;;;;;;;;;;14.00;54.30;;;;;;5249092;28;20269;-30
2022/03/11 04:02:43;;;;;;;;;;;14.00;54.10;;;;;;5248593;28;19948;-28
2022/03/11 04:05:14;;;;;;;;;;;13.90;54.20;;;;;;5248887;28;20365;-28
2022/03/11 04:07:45;;;;;;;;;;;14.00;54.30;;;;;;5248595;28;19978;-30
2022/03/11 04:10:18;;;;;;;;;;;14.00;54.10;;;;;;5230622;28;19945;-30
2022/03/11 04:12:50;;;;;;;;;;;14.00;54.10;;;;;;5248168;28;19958;-28
2022/03/11 04:15:21;;;;;;;;;;;14.00;54.00;;;;;;5248650;28;19921;-31
2022/03/11 04:17:51;;;;;;;;;;;14.00;54.20;;;;;;5248672;28;20023;-29
2022/03/11 04:20:22;;;;;;;;;;;14.00;53.90;;;;;;5248353;28;20019;-30
2022/03/11 04:22:54;;;;;;;;;;;14.00;54.00;;;;;;5248470;28;20402;-28
2022/03/11 04:25:25;;;;;;;;;;;14.00;54.00;;;;;;5251562;28;20340;-28
2022/03/11 04:27:56;;;;;;;;;;;14.00;53.90;;;;;;5251882;28;19920;-28
2022/03/11 04:30:27;;;;;;;;;;;14.00;54.00;;;;;;5251913;28;19921;-31
2022/03/11 04:32:58;;;;;;;;;;;14.00;54.00;;;;;;5251449;28;19920;-27
2022/03/11 04:35:29;;;;;;;;;;;14.00;54.00;;;;;;5251304;28;19921;-28
2022/03/11 04:38:00;;;;;;;;;;;14.00;53.80;;;;;;5251378;28;19943;-27
2022/03/11 04:40:31;;;;;;;;;;;14.00;54.00;;;;;;5233619;28;19927;-27
2022/03/11 04:43:02;;;;;;;;;;;14.00;54.00;;;;;;5251320;28;19920;-28
2022/03/11 04:45:33;;;;;;;;;;;14.00;53.90;;;;;;5251620;28;19974;-27
2022/03/11 04:48:05;;;;;;;;;;;14.00;54.50;;;;;;5251010;28;19921;-28
2022/03/11 04:50:36;;;;;;;;;;;14.00;54.20;;;;;;5251453;28;19927;-29
2022/03/11 04:53:07;;;;;;;;;;;14.00;54.10;;;;;;5232959;28;19924;-27
2022/03/11 04:55:38;;;;;;;;;;;14.00;54.20;;;;;;5251261;28;19920;-28
2022/03/11 04:58:09;;;;;;;;;;;14.00;54.30;;;;;;5251378;28;19948;-28
2022/03/11 05:00:39;;;;;;;;;;;14.00;54.40;;;;;;5217189;28;19962;-28
2022/03/11 05:03:10;;;;;;;;;;;14.00;54.30;;;;;;5231522;28;19927;-28
2022/03/11 05:05:41;;;;;;;;;;;14.00;54.20;;;;;;5250992;28;19921;-31
2022/03/11 05:08:12;;;;;;;;;;;14.00;54.30;;;;;;5250890;28;20369;-27
2022/03/11 05:10:43;;;;;;;;;;;14.00;54.20;;;;;;5251165;28;19924;-28
2022/03/11 05:13:14;;;;;;;;;;;14.00;54.30;;;;;;5250717;28;20388;-29
2022/03/11 05:15:45;;;;;;;;;;;14.00;54.10;;;;;;5251148;28;20280;-29
2022/03/11 05:18:16;;;;;;;;;;;14.00;54.00;;;;;;5250850;28;20434;-28
2022/03/11 05:20:47;;;;;;;;;;;14.00;54.10;;;;;;5250694;28;19924;-28
2022/03/11 05:23:18;;;;;;;;;;;14.00;54.00;;;;;;5251041;28;19920;-28
2022/03/11 05:25:48;;;;;;;;;;;14.00;54.00;;;;;;5231608;28;20388;-32
2022/03/11 05:28:20;;;;;;;;;;;14.00;53.80;;;;;;5233209;28;19924;-32
2022/03/11 05:30:50;;;;;;;;;;;14.00;53.80;;;;;;5250515;28;20422;-32
2022/03/11 05:33:21;;;;;;;;;;;14.00;53.80;;;;;;5249874;28;19962;-28
2022/03/11 05:35:53;;;;;;;;;;;14.00;54.00;;;;;;5250712;28;19920;-28
2022/03/11 05:38:24;;;;;;;;;;;14.00;54.00;;;;;;5250807;28;20317;-27
2022/03/11 05:40:55;;;;;;;;;;;14.00;53.90;;;;;;5250733;28;20430;-31
2022/03/11 05:43:26;;;;;;;;;;;14.00;54.10;;;;;;5215366;28;19924;-27
2022/03/11 05:45:57;;;;;;;;;;;14.00;54.40;;;;;;5250516;28;19994;-27
2022/03/11 05:48:28;;;;;;;;;;;14.00;54.60;;;;;;5251110;28;19920;-28
2022/03/11 05:50:59;;;;;;;;;;;14.00;54.80;;;;;;5250310;28;19920;-30
2022/03/11 05:53:31;;;;;;;;;;;14.00;54.70;;;;;;5231999;28;19956;-28
2022/03/11 05:56:02;;;;;;;;;;;14.00;54.70;;;;;;5246560;28;19928;-28
2022/03/11 05:58:33;;;;;;;;;;;14.00;54.70;;;;;;5247329;28;20365;-30
2022/03/11 06:01:03;;;;;;;;;;;14.10;54.80;;;;;;5246807;28;19977;-29
2022/03/11 06:03:34;;;;;;;;;;;14.10;55.00;;;;;;5244069;28;19947;-27
2022/03/11 06:06:05;;;;;;;;;;;14.00;54.50;;;;;;5247614;28;20350;-28
2022/03/11 06:08:36;;;;;;;;;;;12.30;56.10;;;;;;5247469;28;20025;-30
2022/03/11 06:11:07;;;;;;;;;;;11.00;57.90;;;;;;5247833;28;19932;-28
2022/03/11 06:13:41;;;;;;;;;;;10.20;59.30;;;;;;5247676;28;19920;-27
2022/03/11 06:16:12;;;;;;;39.70;27.00;;;9.70;60.10;;;;;;5229730;28;19920;-31
2022/03/11 06:18:43;;;;;;;;;;;9.40;60.80;;;;;;5229703;28;20132;-31
2022/03/11 06:21:13;;;;;;;;;;;9.10;61.60;;;;;;5247530;28;20378;-31
2022/03/11 06:23:45;;;;;;;32.67;21.50;;;9.00;61.90;;;;;;5247286;28;19920;-30
2022/03/11 06:26:16;;;;;;;33.37;21.40;;;9.00;61.70;;;;;;5246929;28;20040;-29
2022/03/11 06:28:47;;;;;;;34.17;20.13;;;9.00;61.80;;;;;;5229189;28;20032;-30
2022/03/11 06:31:18;;;;;;;33.70;21.37;;;9.00;61.80;;;;;;5246779;28;20048;-27
2022/03/11 06:33:49;;;;;;;;;;;9.00;62.30;;;;;;5247298;28;20040;-30
2022/03/11 06:36:20;;;;;;;;;;;9.00;62.30;;;;;;5249815;28;19927;-28
2022/03/11 06:38:51;;;;;;;;;;;9.00;62.20;;;;;;5249590;28;20301;-28
2022/03/11 06:41:22;;;;;;;;;;;8.90;62.10;;;;;;5250040;28;19920;-28
2022/03/11 06:43:53;;;;;;;;;;;8.90;62.20;;;;;;5249449;28;19925;-28
2022/03/11 06:46:24;;;;;;;;;;;8.90;62.20;;;;;;5248979;28;19966;-32
2022/03/11 06:48:55;;;;;;;;;;;8.80;62.30;;;;;;5231836;28;20377;-27
2022/03/11 06:51:26;;;;;;;;;;;8.80;63.00;;;;;;5231456;28;19936;-29
2022/03/11 06:53:57;;;;;;;;;;;8.80;63.10;;;;;;5249514;28;19974;-31
2022/03/11 06:56:28;;;;;;;;;;;8.80;63.30;;;;;;5249217;28;20350;-27
2022/03/11 06:58:59;;;;;;;;;;;8.70;62.50;;;;;;5249361;28;19974;-30
2022/03/11 07:01:30;;;;;;;;;;;8.70;62.90;;;;;;5249023;28;19971;-27
2022/03/11 07:04:02;;;;;;;;;;;8.70;61.90;;;;;;5249155;28;20357;-29
2022/03/11 07:06:35;;;;;;;;;;;8.70;61.70;;;;;;5248565;28;20078;-27
2022/03/11 07:09:06;;;;;;;;;;;8.70;62.10;;;;;;5231230;28;19935;-28
2022/03/11 07:11:37;;;;;;;;;;;8.70;61.30;;;;;;5231517;28;20254;-26
2022/03/11 07:14:08;;;;;;;;;;;8.70;61.70;;;;;;5249145;28;19964;-29
2022/03/11 07:16:39;;;;;;;;;;;8.70;61.00;;;;;;5249309;28;19987;-29
2022/03/11 07:19:10;;;;;;;;;;;8.70;61.10;;;;;;5249153;28;19970;-26
2022/03/11 07:21:40;;;;;;;;;;;8.70;60.10;;;;;;5249125;28;19924;-29
2022/03/11 07:24:11;;;;;;;;;;;8.80;60.70;;;;;;5214076;28;19978;-31
2022/03/11 07:26:42;;;;;;;;;;;8.80;60.80;;;;;;5249130;28;19924;-28
2022/03/11 07:29:13;;;;;;;;;;;8.80;59.80;;;;;;5248931;28;19936;-27
2022/03/11 07:31:45;;;;;;;;;;;8.80;60.60;;;;;;5229093;28;20425;-27
2022/03/11 07:34:16;;;;;;;;;;;8.80;60.30;;;;;;5244228;28;19932;-27
2022/03/11 07:36:47;;;;;;;;;;;8.80;58.50;;;;;;5246796;28;19928;-27
2022/03/11 07:39:18;;;;;;;;;;;8.80;59.10;;;;;;5246508;28;19931;-27
2022/03/11 07:41:49;;;;;;;;;;;8.80;59.00;;;;;;5246375;28;19929;-27
2022/03/11 07:44:20;;;;;;;;;;;8.70;60.60;;;;;;5246470;28;19928;-27
2022/03/11 07:46:51;;;;;;;;;;;8.80;60.00;;;;;;5246366;28;20408;-27
2022/03/11 07:49:23;;;;;;;;;;;8.90;60.20;;;;;;5246645;28;20499;-27
2022/03/11 07:51:54;;;;;;;;;;;9.00;57.90;;;;;;5246270;28;19963;-27
2022/03/11 07:54:25;;;;;;;;;;;9.10;58.20;;;;;;5228736;28;19936;-28
2022/03/11 07:56:57;;;;;;;;;;;9.20;59.50;;;;;;5246771;28;19928;-28
2022/03/11 07:59:31;;;;;;;;;;;9.20;58.50;;;;;;5250695;28;20468;-27
2022/03/11 08:02:03;;;;;;;;;;;9.20;58.80;;;;;;5250541;28;19959;-27
2022/03/11 08:04:34;;;;;;;;;;;9.20;58.20;;;;;;5232530;28;19995;-27
2022/03/11 08:07:06;;;;;;;;;;;9.20;57.80;;;;;;5250232;28;19932;-27
2022/03/11 08:09:42;;;;;;;;;;;9.20;57.90;;;;;;5250446;28;19928;-27
2022/03/11 08:12:13;;;;;;;;;;;9.20;56.80;;;;;;5250573;28;19956;-27
2022/03/11 08:14:44;;;;;;;;;;;9.20;56.90;;;;;;5232462;28;19944;-28
2022/03/11 08:17:15;;;;;;;;;;;9.10;56.50;;;;;;5232473;28;20447;-28
2022/03/11 08:19:47;;;;;;;;;;;9.20;54.60;;;;;;5249956;28;19947;-27
2022/03/11 08:22:17;;;;;;;;;;;9.10;55.00;;;;;;5249973;28;19925;-27
2022/03/11 08:24:48;;;;;;;;;;;9.10;53.30;;;;;;5250058;28;20259;-27
2022/03/11 08:27:19;;;;;;;;;;;9.20;54.30;;;;;;5250019;28;19935;-27
2022/03/11 08:29:50;;;;;;;;;;;9.20;55.70;;;;;;5249832;28;20352;-27
2022/03/11 08:32:21;;;;;;;;;;;9.20;53.70;;;;;;5231846;28;19935;-27
2022/03/11 08:34:55;;;;;;;;;;;9.20;54.30;;;;;;5249831;28;19933;-28
2022/03/11 08:37:31;;;;;;;;;;;9.20;53.50;;;;;;5249961;28;19932;-28
2022/03/11 08:40:06;;;;;;;;;;;9.20;53.90;;;;;;5232316;28;20289;-28
2022/03/11 08:42:37;;;;;;;;;;;9.20;53.70;;;;;;5249407;28;19924;-28
2022/03/11 08:45:09;;;;;;;;;;;9.20;52.90;;;;;;5249583;28;19928;-28
2022/03/11 08:47:41;;;;;;;;;;;9.20;53.90;;;;;;5233257;28;20282;-28
2022/03/11 08:50:12;;;;;;;;;;;9.20;54.10;;;;;;5251683;28;19924;-28
2022/03/11 08:52:43;;;;;;;;;;;9.20;52.30;;;;;;5251566;28;19936;-28
2022/03/11 08:55:20;;;;;;;;;;;9.20;52.50;;;;;;5251472;28;19928;-28
2022/03/11 08:57:51;;;;;;;;;;;9.30;52.00;;;;;;5234062;28;19947;-29
2022/03/11 09:00:22;;;;;;;;;;;9.20;51.20;;;;;;5251896;28;19924;-28
2022/03/11 09:02:53;;;;;;;;;;;9.20;52.00;;;;;;5217834;28;20414;-28
2022/03/11 09:05:25;;;;;;;;;;;9.20;52.30;;;;;;5251646;28;20029;-28
2022/03/11 09:07:58;;;;;;;;;;;9.30;54.00;;;;;;5251175;28;19963;-27
2022/03/11 09:10:29;;;;;;;;;;;9.30;52.70;;;;;;5250962;28;19924;-27
2022/03/11 09:13:00;;;;;;;;;;;9.40;53.50;;;;;;5251184;28;19978;-29
2022/03/11 09:15:31;;;;;;;;;;;9.40;52.90;;;;;;5231765;28;20282;-28
2022/03/11 09:18:04;;;;;;;;;;;9.30;52.50;;;;;;5233192;28;20192;-28
2022/03/11 09:20:37;;;;;;;;;;;9.30;51.90;;;;;;5250783;28;19970;-27
2022/03/11 09:23:08;;;;;;;;;;;9.30;51.90;;;;;;5250943;28;19924;-28
2022/03/11 09:25:39;;;;;;;;;;;9.20;52.70;;;;;;5250548;28;19924;-28
2022/03/11 09:28:10;;;;;;;;;;;9.20;52.20;;;;;;5251013;28;20289;-28
2022/03/11 09:30:41;;;;;;;;;;;9.30;52.90;;;;;;5251111;28;20295;-28
2022/03/11 09:33:12;;;;;;;;;;;9.20;52.70;;;;;;5251059;28;19924;-28
2022/03/11 09:35:44;;;;;;;;;;;9.20;52.50;;;;;;5250782;28;19935;-27
2022/03/11 09:38:15;;;;;;;;;;;9.20;53.30;;;;;;5251102;28;20386;-28
2022/03/11 09:40:46;;;;;;;;;;;9.20;51.20;;;;;;5250884;28;19924;-28
2022/03/11 09:43:16;;;;;;;;;;;9.20;52.70;;;;;;5250808;28;19925;-28
2022/03/11 09:45:48;;;;;;;;;;;9.20;51.90;;;;;;5250408;28;19925;-28
2022/03/11 09:48:19;;;;;;;;;;;9.20;51.60;;;;;;5250535;28;19925;-28
2022/03/11 09:50:50;;;;;;;;;;;9.20;52.10;;;;;;5250610;28;19970;-28
2022/03/11 09:53:21;;;;;;;;;;;9.20;53.20;;;;;;5232546;28;19928;-28
2022/03/11 09:55:52;;;;;;;;;;;9.20;52.80;;;;;;5251119;28;19925;-28
2022/03/11 09:58:23;;;;;;;;;;;9.20;52.50;;;;;;5233534;28;20336;-28
2022/03/11 10:00:56;;;;;;;;;;;9.20;52.80;;;;;;5250469;28;19925;-28
2022/03/11 10:03:29;;;;;;;;;;;9.20;52.70;;;;;;5250345;28;19931;-28
2022/03/11 10:06:00;;;;;;;;;;;9.20;51.50;;;;;;5250537;28;19932;-28
2022/03/11 10:08:32;;;;;;;;;;;9.20;51.30;;;;;;5232559;28;19925;-28
2022/03/11 10:11:15;;;;;;;;;;;9.20;51.20;;;;;;5250323;28;19993;-28
2022/03/11 10:13:46;;;;;;;;;;;9.20;51.00;;;;;;5250208;28;20320;-28
2022/03/11 10:16:18;;;;;;;;;;;9.20;50.60;;;;;;5249956;28;19963;-28
2022/03/11 10:19:02;;;;;;;;;;;9.20;50.50;;;;;;5250709;28;19931;-28
2022/03/11 10:21:34;;;;;;;;;;;9.20;50.40;;;;;;5248906;28;19929;-28
2022/03/11 10:24:06;;;;;;;;;;;9.20;50.50;;;;;;5250324;28;19946;-28
2022/03/11 10:26:40;;;;;;;;;;;9.20;49.40;;;;;;5249765;28;19928;-28
2022/03/11 10:29:14;;;;;;;;;;;9.20;50.50;;;;;;5250404;28;19947;-28
2022/03/11 10:31:46;;;;;;;;;;;9.20;49.60;;;;;;5249568;28;19925;-28
2022/03/11 10:34:26;;;;;;;;;;;9.30;50.10;;;;;;5249591;28;19932;-28
2022/03/11 10:36:58;;;;;;;;;;;9.30;51.10;;;;;;5249820;28;20009;-28
2022/03/11 10:39:36;;;;;;;;;;;9.30;50.80;;;;;;5249547;28;19931;-27
2022/03/11 10:42:20;;;;;;;;;;;9.30;49.20;;;;;;5232314;28;20386;-27
2022/03/11 10:44:55;;;;;;;;;;;9.30;50.30;;;;;;5249610;28;20023;-28
2022/03/11 10:47:28;;;;;;;;;;;9.30;50.20;;;;;;5249349;28;20365;-28
2022/03/11 10:49:59;;;;;;;;;;;9.30;51.30;;;;;;5249227;28;19936;-28
2022/03/11 10:52:32;;;;;;;;;;;9.30;50.20;;;;;;5214061;28;20326;-28
2022/03/11 10:55:16;;;;;;;;;;;9.30;50.20;;;;;;5249490;28;20413;-28
2022/03/11 10:57:48;;;;;;;;;;;9.30;51.50;;;;;;5231530;28;20289;-28
2022/03/11 11:00:20;;;;;;;;;;;9.40;52.20;;;;;;5249437;28;19970;-28
2022/03/11 11:02:52;;;;;;;;;;;9.30;52.10;;;;;;5248519;28;20289;-28
2022/03/11 11:05:23;;;;;;;;;;;9.40;49.00;;;;;;5249376;28;20276;-28
2022/03/11 11:07:54;;;;;;;;;;;9.40;51.70;;;;;;5249391;28;19997;-28
2022/03/11 11:10:25;;;;;;;;;;;9.40;50.60;;;;;;5231592;28;20431;-28
2022/03/11 11:12:57;;;;;;;;;;;9.40;49.50;;;;;;5249218;28;19924;-28
2022/03/11 11:15:27;;;;;;;;;;;9.40;50.70;;;;;;5231785;28;19924;-28
2022/03/11 11:17:59;;;;;;;;;;;9.40;51.50;;;;;;5231484;28;20295;-28
2022/03/11 11:20:33;;;;;;;;;;;9.40;52.20;;;;;;5214099;28;19963;-28
2022/03/11 11:23:05;;;;;;;;;;;9.40;52.20;;;;;;5249021;28;19925;-28
2022/03/11 11:25:36;;;;;;;;;;;9.40;50.30;;;;;;5249125;28;19924;-28
2022/03/11 11:28:08;;;;;;;;;;;9.40;51.40;;;;;;5231416;28;19924;-28
2022/03/11 11:30:40;;;;;;;;;;;9.50;51.40;;;;;;5231042;28;20023;-28
2022/03/11 11:33:15;;;;;;;;;;;9.50;51.60;;;;;;5234278;28;19931;-28
2022/03/11 11:35:46;;;;;;;;;;;9.50;51.90;;;;;;5253322;28;20328;-28
2022/03/11 11:38:33;;;;;;;;;;;9.50;52.00;;;;;;5253340;28;20285;-28
2022/03/11 11:41:22;;;;;;;;;;;9.50;52.50;;;;;;5219386;28;19924;-28
2022/03/11 11:44:00;;;;;;;;;;;9.50;51.60;;;;;;5218957;28;20023;-28
2022/03/11 11:46:32;;;;;;;;;;;9.60;51.90;;;;;;5253089;28;20022;-28
2022/03/11 11:49:04;;;;;;;;;;;9.60;53.00;;;;;;5235361;28;19990;-28
2022/03/11 11:51:35;;;;;;;;;;;9.60;51.70;;;;;;5252830;28;19955;-28
2022/03/11 11:54:09;;;;;;;;;;;9.60;51.50;;;;;;5253123;28;19924;-28
2022/03/11 11:56:44;;;;;;;;;;;9.60;51.20;;;;;;5235919;28;19924;-28
2022/03/11 11:59:16;;;;;;;;;;;9.60;51.70;;;;;;5252951;28;19928;-28
2022/03/11 12:01:52;;;;;;;;;;;9.60;51.60;;;;;;5234947;28;20286;-28
2022/03/11 12:04:33;;;;;;;;;;;9.60;51.90;;;;;;5234845;28;19928;-28
2022/03/11 12:07:13;;;;;;;;;;;9.60;50.80;;;;;;5252417;28;19924;-28
2022/03/11 12:09:45;;;;;;;;;;;9.60;50.40;;;;;;5252796;28;20400;-28
2022/03/11 12:12:22;;;;;;;;;;;9.60;50.80;;;;;;5252442;28;19928;-28
2022/03/11 12:15:06;;;;;;;;;;;9.70;51.50;;;;;;5252482;28;19928;-28
2022/03/11 12:18:05;;;;;;;;;;;9.70;50.60;;;;;;5234853;28;20285;-28
2022/03/11 12:20:46;;;;;;;;;;;9.70;50.60;;;;;;5252325;28;19924;-28
2022/03/11 12:23:17;;;;;;;;;;;9.70;50.70;;;;;;5251952;28;19928;-28
2022/03/11 12:25:57;;;;;;;;;;;9.70;50.50;;;;;;5252065;28;19931;-28
2022/03/11 12:28:35;;;;;;;;;;;9.70;51.00;;;;;;5219739;28;19924;-28
2022/03/11 12:31:08;;;;;;;;;;;9.70;51.60;;;;;;5234083;28;20011;-28
2022/03/11 12:33:40;;;;;;;;;;;9.80;51.70;;;;;;5251265;28;19932;-28
2022/03/11 12:36:11;;;;;;;;;;;9.80;50.50;;;;;;5233319;28;20012;-28
2022/03/11 12:38:42;;;;;;;;;;;9.80;50.50;;;;;;5251672;28;20019;-28
2022/03/11 12:41:27;;;;;;;;;;;9.80;50.20;;;;;;5252349;28;20424;-28
2022/03/11 12:44:10;;;;;;;;;;;9.80;51.70;;;;;;5232984;28;19932;-28
2022/03/11 12:46:55;;;;;;;;;;;9.80;49.50;;;;;;5235643;28;19948;-28
2022/03/11 12:49:26;;;;;;;;;;;9.90;49.60;;;;;;5251222;28;19925;-28
2022/03/11 12:52:16;;;;;;;;;;;9.90;50.50;;;;;;5251037;28;20039;-28
2022/03/11 12:54:47;;;;;;;;;;;9.90;50.30;;;;;;5233819;28;19924;-28
2022/03/11 12:57:18;;;;;;;;;;;9.90;50.80;;;;;;5233833;28;20019;-28
2022/03/11 12:59:50;;;;;;;;;;;10.00;52.70;;;;;;5233946;28;20016;-28
2022/03/11 13:02:21;;;;;;;;;;;10.00;52.00;;;;;;5251676;28;20358;-28
2022/03/11 13:04:52;;;;;;;;;;;10.00;53.40;;;;;;5251649;28;19921;-28
2022/03/11 13:07:29;;;;;;;;;;;10.00;51.80;;;;;;5251214;28;19924;-28
2022/03/11 13:10:21;;;;;;;;;;;10.00;51.10;;;;;;5234142;28;20307;-28
2022/03/11 13:12:52;;;;;;;;;;;10.00;50.40;;;;;;5251363;28;19921;-28
2022/03/11 13:15:27;;;;;;;;;;;10.10;51.20;;;;;;5233459;28;19952;-28
2022/03/11 13:18:01;;;;;;;;;;;10.00;49.70;;;;;;5233702;28;19974;-28
2022/03/11 13:20:42;;;;;;;;;;;10.10;49.80;;;;;;5251105;28;19924;-28
2022/03/11 13:23:28;;;;;;;;;;;10.10;50.60;;;;;;5233870;28;20431;-28
2022/03/11 13:25:59;;;;;;;;;;;10.10;51.40;;;;;;5251154;28;19920;-28
2022/03/11 13:28:31;;;;;;;;;;;10.10;52.20;;;;;;5251512;28;19920;-28
2022/03/11 13:31:15;;;;;;;;;;;10.10;50.40;;;;;;5251749;28;19920;-28
2022/03/11 13:34:09;;;;;;;;;;;10.10;50.10;;;;;;5251192;28;20034;-28
2022/03/11 13:36:41;;;;;;;;;;;10.10;51.00;;;;;;5243138;28;19925;-28
2022/03/11 13:39:19;;;;;;;;;;;10.10;51.30;;;;;;5250763;28;19982;-28
2022/03/11 13:41:55;;;;;;;;;;;10.10;50.40;;;;;;5232981;28;19966;-28
2022/03/11 13:44:48;;;;;;;;;;;10.10;51.70;;;;;;5250864;28;20373;-28
2022/03/11 13:47:33;;;;;;;;;;;10.20;51.40;;;;;;5236547;28;19950;-28
2022/03/11 13:50:08;;;;;;;;;;;10.20;50.10;;;;;;5232828;28;20046;-28
2022/03/11 13:53:04;;;;;;;;;;;10.30;52.10;;;;;;5228260;28;19921;-28
2022/03/11 13:55:43;;;;;;;;;;;10.40;52.50;;;;;;5228472;28;19927;-28
2022/03/11 13:58:18;;;;;;;;;;;10.50;51.40;;;;;;5229194;28;19927;-28
2022/03/11 14:00:49;;;;;;;;;;;10.60;53.00;;;;;;5229884;28;19921;-28
2022/03/11 14:03:21;;;;;;;;;;;10.70;50.70;;;;;;5229784;28;19944;-28
2022/03/11 14:05:55;;;;;;;;;;;10.80;52.40;;;;;;5228936;28;19920;-28
2022/03/11 14:08:48;;;;;;;;;;;10.80;50.80;;;;;;5166059;28;19926;-28
2022/03/11 14:11:21;;;;;;;;;;;10.80;49.70;;;;;;5150241;28;19922;-28
2022/03/11 14:13:52;;;;;;;;;;;10.90;48.90;;;;;;5149747;28;19921;-28
2022/03/11 14:16:26;;;;;;;;;;;10.90;51.60;;;;;;5149678;28;19925;-28
2022/03/11 14:18:59;;;;;;;;;;;11.00;49.90;;;;;;5165863;28;19922;-28
2022/03/11 14:21:30;;;;;;;;;;;11.00;50.60;;;;;;5164674;28;19928;-28
2022/03/11 14:24:01;;;;;;;;;;;11.00;49.10;;;;;;5165015;28;19925;-28
2022/03/11 14:26:32;;;;;;;;;;;10.90;51.40;;;;;;5165311;28;19944;-28
2022/03/11 14:29:31;;;;;;;;;;;10.90;50.80;;;;;;5149390;28;20099;-28
2022/03/11 14:32:02;;;;;;;;;;;10.90;50.30;;;;;;5165526;28;19957;-28
2022/03/11 14:34:33;;;;;;;;;;;10.80;50.30;;;;;;5165733;28;19926;-28
2022/03/11 14:37:04;;;;;;;;;;;10.80;50.10;;;;;;5133281;28;19928;-28
2022/03/11 14:39:35;;;;;;;;;;;10.80;51.30;;;;;;5170157;28;19943;-28
2022/03/11 14:42:07;;;;;;;;;;;10.80;51.60;;;;;;5228346;28;20286;-28
2022/03/11 14:44:37;;;;;;;;;;;10.70;50.40;;;;;;5228993;28;19920;-28
2022/03/11 14:47:09;;;;;;;;;;;10.70;51.60;;;;;;5228807;28;19920;-28
2022/03/11 14:49:43;;;;;;;;;;;10.70;51.10;;;;;;5229785;28;19927;-28
2022/03/11 14:52:15;;;;;;;;;;;10.70;52.00;;;;;;5235897;28;19962;-28